createdAt,value
2017-10-25T00:00:51.538Z,89.04
2017-10-25T00:03:18.939Z,88.94
2017-10-25T00:05:46.330Z,89.08
2017-10-25T00:08:13.817Z,89.42
2017-10-25T00:10:41.263Z,89.51
2017-10-25T00:13:08.719Z,89.41
2017-10-25T00:15:36.113Z,89.53
2017-10-25T00:18:03.515Z,89.51
2017-10-25T00:20:30.911Z,89.33
2017-10-25T00:22:58.345Z,89.87
2017-10-25T00:25:25.811Z,89.93
2017-10-25T00:27:53.216Z,89.83
2017-10-25T00:30:20.718Z,89.94
2017-10-25T00:32:48.119Z,89.60
2017-10-25T00:35:15.531Z,89.62
2017-10-25T00:37:42.982Z,89.73
2017-10-25T00:40:10.456Z,89.53
2017-10-25T00:42:37.894Z,89.52
2017-10-25T00:45:05.356Z,89.14
2017-10-25T00:47:32.812Z,88.93
2017-10-25T00:50:00.210Z,88.67
2017-10-25T00:52:27.613Z,88.99
2017-10-25T00:54:55.019Z,89.40
2017-10-25T00:57:22.430Z,89.66
2017-10-25T00:59:49.885Z,89.71
2017-10-25T01:02:17.278Z,89.40
2017-10-25T02:36:18.421Z,90.39
2017-10-25T02:38:45.818Z,90.47
2017-10-25T02:41:13.306Z,90.18
2017-10-25T02:43:40.698Z,90.07
2017-10-25T02:46:08.114Z,89.62
2017-10-25T02:48:35.503Z,89.51
2017-10-25T02:51:03.036Z,89.56
2017-10-25T02:53:30.422Z,89.33
2017-10-25T02:55:57.834Z,89.30
2017-10-25T02:58:25.234Z,89.77
2017-10-25T03:00:52.629Z,89.85
2017-10-25T03:03:20.041Z,89.88
2017-10-25T03:05:47.423Z,89.38
2017-10-25T03:08:14.828Z,89.23
2017-10-25T03:10:42.226Z,88.69
2017-10-25T03:13:09.631Z,88.79
2017-10-25T03:15:37.027Z,88.82
2017-10-25T03:18:04.426Z,88.40
2017-10-25T03:20:31.828Z,88.91
2017-10-25T03:22:59.232Z,88.68
2017-10-25T03:25:26.630Z,89.27
2017-10-25T03:27:54.039Z,88.82
2017-10-25T03:30:21.528Z,87.94
2017-10-25T03:32:48.991Z,88.39
2017-10-25T03:35:16.391Z,88.69
2017-10-25T03:37:43.899Z,88.20
2017-10-25T03:40:11.303Z,87.83
2017-10-25T03:42:38.707Z,87.52
2017-10-25T03:45:06.109Z,87.29
2017-10-25T03:47:33.514Z,87.86
2017-10-25T03:50:00.902Z,87.70
2017-10-25T03:52:28.327Z,88.10
2017-10-25T03:54:55.734Z,88.02
2017-10-25T03:57:23.135Z,87.75
2017-10-25T03:59:50.595Z,87.66
2017-10-25T04:02:18.040Z,87.95
2017-10-25T04:04:45.444Z,87.69
2017-10-25T04:07:12.862Z,88.58
2017-10-25T04:09:40.254Z,88.14
2017-10-25T04:12:07.674Z,88.29
2017-10-25T04:14:35.066Z,88.03
2017-10-25T04:17:02.460Z,88.26
2017-10-25T04:19:29.938Z,87.92
2017-10-25T04:21:57.344Z,87.18
2017-10-25T04:24:24.738Z,87.10
2017-10-25T04:26:52.126Z,87.35
2017-10-25T04:29:19.547Z,87.08
2017-10-25T04:31:47.026Z,86.50
2017-10-25T04:34:14.430Z,85.81
2017-10-25T04:36:41.839Z,86.13
2017-10-25T04:39:09.293Z,86.80
2017-10-25T04:41:36.692Z,86.55
2017-10-25T04:44:04.081Z,87.25
2017-10-25T04:46:31.572Z,87.01
2017-10-25T04:48:58.956Z,87.02
2017-10-25T04:51:26.387Z,86.95
2017-10-25T04:53:53.784Z,87.21
2017-10-25T04:56:21.176Z,87.76
2017-10-25T04:58:48.580Z,88.34
2017-10-25T05:01:15.995Z,88.92
2017-10-25T05:03:43.395Z,89.27
2017-10-25T05:06:10.798Z,88.19
2017-10-25T05:08:38.222Z,87.97
2017-10-25T05:11:05.729Z,87.76
2017-10-25T05:13:33.202Z,87.75
2017-10-25T05:16:00.585Z,87.19
2017-10-25T05:18:28.015Z,87.36
2017-10-25T05:20:55.403Z,87.43
2017-10-25T05:23:22.811Z,87.06
2017-10-25T05:25:50.211Z,87.37
2017-10-25T05:28:17.611Z,87.17
2017-10-25T05:30:45.077Z,86.79
2017-10-25T05:33:12.522Z,86.76
2017-10-25T05:35:39.992Z,86.76
2017-10-25T05:38:07.438Z,86.64
2017-10-25T05:40:34.835Z,87.53
2017-10-25T05:43:02.235Z,87.41
2017-10-25T05:45:29.712Z,87.04
2017-10-25T05:47:57.111Z,87.12
2017-10-25T05:50:24.614Z,86.68
2017-10-25T05:52:52.083Z,86.33
2017-10-25T05:55:19.539Z,86.27
2017-10-25T05:57:46.940Z,86.02
2017-10-25T06:00:14.363Z,86.57
2017-10-25T06:02:41.807Z,86.39
2017-10-25T06:05:09.260Z,85.92
2017-10-25T06:07:36.664Z,85.79
2017-10-25T06:10:04.072Z,85.79
2017-10-25T06:12:31.475Z,85.58
2017-10-25T06:14:58.871Z,85.83
2017-10-25T06:17:26.279Z,85.62
2017-10-25T06:19:53.674Z,85.40
2017-10-25T06:22:21.088Z,85.48
2017-10-25T06:24:48.511Z,85.91
2017-10-25T06:27:15.907Z,85.65
2017-10-25T06:29:43.419Z,85.61
2017-10-25T06:32:10.880Z,85.96
2017-10-25T06:34:38.268Z,86.07
2017-10-25T06:37:05.690Z,86.41
2017-10-25T06:39:33.143Z,86.28
2017-10-25T06:42:00.542Z,86.37
2017-10-25T06:44:27.955Z,86.11
2017-10-25T06:46:55.351Z,86.15
2017-10-25T06:49:22.747Z,86.02
2017-10-25T06:51:50.149Z,86.37
2017-10-25T06:54:17.572Z,86.35
2017-10-25T06:56:45.035Z,85.97
2017-10-25T06:59:12.485Z,86.23
2017-10-25T07:01:39.894Z,86.47
2017-10-25T07:04:07.294Z,86.75
2017-10-25T07:06:34.759Z,86.89
2017-10-25T07:09:02.219Z,86.97
2017-10-25T07:11:29.614Z,86.88
2017-10-25T07:13:57.006Z,87.28
2017-10-25T07:16:24.402Z,87.84
2017-10-25T07:18:51.802Z,87.20
2017-10-25T07:21:19.194Z,87.08
2017-10-25T07:23:46.655Z,86.81
2017-10-25T07:26:14.102Z,86.85
2017-10-25T07:28:41.507Z,86.77
2017-10-25T07:31:08.910Z,86.49
2017-10-25T07:33:36.311Z,86.75
2017-10-25T07:36:03.711Z,86.57
2017-10-25T07:38:31.106Z,86.44
2017-10-25T07:40:58.523Z,86.03
2017-10-25T07:43:25.954Z,86.26
2017-10-25T07:45:53.360Z,86.27
2017-10-25T07:48:20.742Z,85.73
2017-10-25T07:50:48.153Z,85.79
2017-10-25T07:53:15.535Z,85.59
2017-10-25T07:55:42.940Z,85.51
2017-10-25T07:58:10.422Z,86.01
2017-10-25T08:00:37.826Z,85.75
2017-10-25T08:03:05.239Z,85.38
2017-10-25T08:05:32.694Z,85.24
2017-10-25T08:08:00.082Z,85.46
2017-10-25T08:10:27.491Z,84.62
2017-10-25T08:12:54.966Z,84.45
2017-10-25T08:15:22.423Z,84.38
2017-10-25T08:17:49.814Z,83.77
2017-10-25T08:20:17.222Z,82.79
2017-10-25T08:22:44.611Z,81.76
2017-10-25T08:25:12.011Z,80.36
2017-10-25T08:27:39.499Z,78.93
2017-10-25T08:30:06.903Z,78.03
2017-10-25T08:32:34.294Z,76.78
2017-10-25T08:35:01.703Z,75.89
2017-10-25T08:37:29.126Z,74.32
2017-10-25T08:39:56.579Z,71.14
2017-10-25T08:42:23.976Z,68.23
2017-10-25T08:44:51.380Z,67.94
2017-10-25T08:47:18.779Z,63.77
2017-10-25T08:49:46.179Z,62.10
2017-10-25T08:52:13.667Z,62.55
2017-10-25T08:54:41.123Z,61.92
2017-10-25T08:57:08.506Z,63.02
2017-10-25T08:59:36.032Z,63.86
2017-10-25T09:02:03.487Z,65.63
2017-10-25T09:04:30.882Z,68.30
2017-10-25T09:06:58.299Z,68.13
2017-10-25T09:09:25.703Z,70.49
2017-10-25T09:11:53.220Z,72.36
2017-10-25T09:14:21.533Z,72.35
2017-10-25T09:16:48.930Z,73.50
2017-10-25T09:19:16.408Z,71.10
2017-10-25T09:21:43.867Z,68.84
2017-10-25T09:24:11.255Z,67.22
2017-10-25T09:26:38.669Z,64.75
2017-10-25T09:29:06.057Z,64.49
2017-10-25T09:31:33.450Z,62.28
2017-10-25T09:34:00.835Z,63.56
2017-10-25T09:36:28.236Z,64.67
2017-10-25T09:38:56.579Z,62.41
2017-10-25T09:41:23.971Z,64.86
2017-10-25T09:43:51.371Z,65.18
2017-10-25T09:46:18.842Z,67.00
2017-10-25T09:48:46.302Z,68.86
2017-10-25T09:51:13.688Z,67.91
2017-10-25T09:53:41.086Z,67.94
2017-10-25T09:56:08.463Z,67.78
2017-10-25T09:58:35.858Z,68.81
2017-10-25T10:01:03.286Z,70.31
2017-10-25T10:03:30.686Z,69.52
2017-10-25T10:05:58.076Z,70.02
2017-10-25T10:08:25.554Z,69.59
2017-10-25T10:10:52.951Z,69.45
2017-10-25T10:13:20.342Z,69.57
2017-10-25T10:15:47.744Z,67.79
2017-10-25T10:18:15.122Z,67.54
2017-10-25T10:20:42.509Z,68.35
2017-10-25T10:23:09.905Z,67.80
2017-10-25T10:25:37.288Z,67.59
2017-10-25T10:28:04.748Z,66.37
2017-10-25T10:30:32.261Z,65.68
2017-10-25T10:32:59.707Z,62.58
2017-10-25T10:35:27.162Z,60.64
2017-10-25T10:37:54.613Z,61.08
2017-10-25T10:40:22.007Z,60.20
2017-10-25T10:42:49.459Z,60.68
2017-10-25T10:45:16.842Z,61.19
2017-10-25T10:47:44.237Z,61.36
2017-10-25T10:50:11.627Z,62.57
2017-10-25T10:52:39.016Z,63.44
2017-10-25T10:55:06.519Z,63.32
2017-10-25T10:57:33.969Z,65.64
2017-10-25T11:00:01.428Z,64.26
2017-10-25T11:02:28.893Z,63.03
2017-10-25T11:04:56.346Z,64.59
2017-10-25T11:07:23.735Z,63.68
2017-10-25T11:09:51.122Z,64.50
2017-10-25T11:12:18.509Z,63.62
2017-10-25T11:14:45.900Z,64.68
2017-10-25T11:17:13.339Z,64.63
2017-10-25T11:19:40.744Z,66.50
2017-10-25T11:22:08.123Z,66.36
2017-10-25T11:24:35.591Z,66.25
2017-10-25T11:27:03.043Z,67.12
2017-10-25T11:29:30.520Z,67.05
2017-10-25T11:31:57.953Z,67.16
2017-10-25T11:34:25.410Z,68.42
2017-10-25T11:36:52.807Z,68.92
2017-10-25T11:39:20.193Z,69.96
2017-10-25T11:41:47.586Z,71.56
2017-10-25T11:44:15.043Z,72.48
2017-10-25T11:46:42.449Z,73.37
2017-10-25T11:49:09.830Z,74.24
2017-10-25T11:51:37.339Z,75.25
2017-10-25T11:54:04.743Z,76.17
2017-10-25T11:56:32.142Z,77.59
2017-10-25T11:58:59.541Z,77.06
2017-10-25T12:01:27.035Z,77.04
2017-10-25T12:03:54.432Z,77.95
2017-10-25T12:06:21.843Z,77.34
2017-10-25T12:08:49.314Z,77.47
2017-10-25T12:11:16.766Z,77.76
2017-10-25T12:13:44.230Z,77.84
2017-10-25T12:16:11.682Z,78.41
2017-10-25T12:18:39.079Z,77.83
2017-10-25T12:21:06.499Z,78.35
2017-10-25T12:23:33.890Z,78.51
2017-10-25T12:26:01.307Z,78.34
2017-10-25T12:28:28.694Z,78.82
2017-10-25T12:30:56.114Z,79.05
2017-10-25T12:33:23.574Z,79.45
2017-10-25T12:35:51.070Z,79.04
2017-10-25T12:38:18.474Z,79.87
2017-10-25T12:40:45.927Z,80.67
2017-10-25T12:43:13.404Z,81.14
2017-10-25T12:45:40.883Z,81.78
2017-10-25T12:48:08.291Z,82.17
2017-10-25T12:50:35.687Z,83.12
2017-10-25T12:53:03.092Z,83.71
2017-10-25T12:55:30.486Z,84.52
2017-10-25T12:57:57.883Z,85.57
2017-10-25T13:00:25.279Z,85.73
2017-10-25T13:02:52.688Z,85.76
2017-10-25T13:05:20.099Z,86.66
2017-10-25T13:07:47.567Z,86.97
2017-10-25T13:10:17.446Z,87.28
2017-10-25T13:12:46.663Z,87.54
2017-10-25T13:15:15.848Z,87.94
2017-10-25T13:17:44.582Z,88.57
2017-10-25T13:20:12.014Z,88.81
2017-10-25T13:22:39.415Z,89.18
2017-10-25T13:25:06.818Z,88.97
2017-10-25T13:27:34.279Z,88.83
2017-10-25T13:30:01.683Z,88.77
2017-10-25T13:32:29.094Z,88.91
2017-10-25T13:34:56.486Z,88.76
2017-10-25T13:37:24.002Z,88.74
2017-10-25T13:39:51.467Z,89.19
2017-10-25T13:42:18.937Z,88.74
2017-10-25T13:44:46.355Z,89.15
2017-10-25T13:47:13.844Z,89.38
2017-10-25T13:49:41.312Z,88.98
2017-10-25T13:52:08.695Z,88.85
2017-10-25T13:54:36.218Z,88.81
2017-10-25T13:57:03.664Z,88.31
2017-10-25T13:59:31.066Z,87.88
2017-10-25T14:01:58.464Z,87.72
2017-10-25T14:04:25.939Z,87.80
2017-10-25T14:06:53.390Z,88.51
2017-10-25T14:09:20.852Z,87.95
2017-10-25T14:11:48.246Z,87.88
2017-10-25T14:14:15.659Z,88.47
2017-10-25T14:16:43.055Z,88.05
2017-10-25T14:19:10.460Z,87.28
2017-10-25T14:21:37.851Z,86.75
2017-10-25T14:24:05.256Z,87.30
2017-10-25T14:26:44.456Z,87.40
2017-10-25T14:29:11.899Z,86.85
2017-10-25T14:31:39.322Z,87.48
2017-10-25T14:34:06.726Z,87.37
2017-10-25T14:36:34.263Z,87.40
2017-10-25T14:39:01.646Z,86.81
2017-10-25T14:41:29.159Z,87.46
2017-10-25T14:43:56.560Z,87.03
2017-10-25T14:46:23.964Z,86.90
2017-10-25T14:48:51.385Z,86.98
2017-10-25T14:51:18.791Z,86.80
2017-10-25T14:53:46.191Z,86.56
2017-10-25T14:56:13.587Z,85.05
2017-10-25T14:58:40.982Z,85.73
2017-10-25T15:01:08.387Z,85.43
2017-10-25T15:03:35.788Z,84.84
2017-10-25T15:06:03.184Z,85.10
2017-10-25T15:08:30.658Z,84.48
2017-10-25T15:10:58.069Z,84.45
2017-10-25T15:13:25.446Z,84.42
2017-10-25T15:15:52.847Z,84.04
2017-10-25T15:18:20.252Z,84.17
2017-10-25T15:20:47.646Z,83.40
2017-10-25T15:23:15.035Z,83.28
2017-10-25T15:25:42.455Z,84.02
2017-10-25T15:28:09.925Z,84.57
2017-10-25T15:30:37.370Z,83.85
2017-10-25T15:33:04.775Z,84.12
2017-10-25T15:35:32.180Z,84.91
2017-10-25T15:37:59.634Z,84.11
2017-10-25T15:40:27.027Z,83.75
2017-10-25T15:42:54.419Z,83.45
2017-10-25T15:45:21.805Z,82.73
2017-10-25T15:47:49.215Z,83.05
2017-10-25T15:50:16.603Z,82.13
2017-10-25T15:52:44.062Z,82.13
2017-10-25T15:55:11.455Z,82.24
2017-10-25T15:57:38.857Z,82.70
2017-10-25T16:00:06.238Z,82.84
2017-10-25T16:02:33.631Z,82.18
2017-10-25T16:05:01.051Z,82.26
2017-10-25T16:07:28.454Z,81.88
2017-10-25T16:09:55.851Z,81.82
2017-10-25T16:12:23.319Z,81.78
2017-10-25T16:14:50.726Z,82.15
2017-10-25T16:17:18.148Z,81.83
2017-10-25T16:19:45.539Z,81.61
2017-10-25T16:22:12.934Z,82.65
2017-10-25T16:24:40.335Z,83.09
2017-10-25T16:27:07.751Z,83.32
2017-10-25T16:29:35.169Z,84.00
2017-10-25T16:32:02.568Z,82.68
2017-10-25T16:34:29.962Z,82.47
2017-10-25T16:36:57.366Z,81.70
2017-10-25T16:39:24.769Z,82.20
2017-10-25T16:41:52.168Z,83.07
2017-10-25T16:44:19.634Z,83.45
2017-10-25T16:46:47.034Z,83.27
2017-10-25T16:49:14.439Z,83.46
2017-10-25T16:51:41.910Z,83.13
2017-10-25T16:54:09.310Z,82.88
2017-10-25T16:56:36.712Z,82.92
2017-10-25T16:59:04.112Z,82.67
2017-10-25T17:01:31.510Z,82.42
2017-10-25T17:03:58.911Z,83.05
2017-10-25T17:06:26.316Z,82.91
2017-10-25T17:08:53.730Z,82.47
2017-10-25T17:11:21.123Z,82.84
2017-10-25T17:13:48.616Z,82.44
2017-10-25T17:16:16.251Z,81.96
2017-10-25T17:18:43.646Z,82.57
2017-10-25T17:21:11.129Z,81.86
2017-10-25T17:23:38.537Z,81.56
2017-10-25T17:26:05.955Z,81.15
2017-10-25T17:28:33.334Z,81.43
2017-10-25T17:31:00.730Z,81.88
2017-10-25T17:33:28.137Z,81.85
2017-10-25T17:35:55.528Z,81.46
2017-10-25T17:38:22.919Z,81.21
2017-10-25T17:40:50.321Z,81.48
2017-10-25T17:43:17.738Z,81.79
2017-10-25T17:45:45.146Z,82.51
2017-10-25T17:48:12.538Z,82.71
2017-10-25T17:50:39.934Z,82.14
2017-10-25T17:53:07.340Z,82.59
2017-10-25T17:55:34.754Z,82.61
2017-10-25T18:00:52.718Z,82.95
2017-10-25T18:03:20.270Z,82.55
2017-10-25T18:05:47.662Z,82.27
2017-10-25T18:08:15.083Z,82.30
2017-10-25T18:10:42.546Z,82.22
2017-10-25T18:13:09.932Z,82.73
2017-10-25T18:15:37.323Z,83.30
2017-10-25T18:18:04.716Z,83.38
2017-10-25T18:20:32.172Z,82.72
2017-10-25T18:22:59.554Z,82.49
2017-10-25T18:25:26.971Z,83.94
2017-10-25T18:27:54.358Z,83.32
2017-10-25T18:30:21.803Z,84.60
2017-10-25T18:32:49.250Z,83.75
2017-10-25T18:35:16.707Z,83.96
2017-10-25T18:37:44.177Z,83.92
2017-10-25T18:40:11.558Z,83.90
2017-10-25T18:42:38.975Z,84.40
2017-10-25T18:45:06.372Z,84.79
2017-10-25T18:47:33.782Z,84.21
2017-10-25T18:50:01.230Z,83.39
2017-10-25T18:52:28.632Z,83.16
2017-10-25T18:54:56.026Z,83.27
2017-10-25T18:57:23.526Z,83.95
2017-10-25T18:59:50.981Z,84.20
2017-10-25T19:02:18.415Z,83.44
2017-10-25T19:04:45.812Z,82.82
2017-10-25T19:07:13.263Z,82.55
2017-10-25T19:09:40.657Z,82.38
2017-10-25T19:12:08.042Z,81.46
2017-10-25T19:14:35.434Z,80.71
2017-10-25T19:17:02.855Z,80.11
2017-10-25T19:19:30.238Z,79.59
2017-10-25T19:21:57.635Z,79.05
2017-10-25T19:24:25.027Z,79.15
2017-10-25T19:26:52.450Z,79.09
2017-10-25T19:29:19.830Z,78.82
2017-10-25T19:31:47.302Z,79.00
2017-10-25T19:34:14.682Z,79.65
2017-10-25T19:36:42.103Z,80.43
2017-10-25T19:39:09.559Z,79.96
2017-10-25T19:41:36.964Z,79.71
2017-10-25T19:44:04.362Z,81.43
2017-10-25T19:46:31.842Z,80.94
2017-10-25T19:48:59.210Z,80.72
2017-10-25T19:51:26.615Z,80.58
2017-10-25T19:53:54.022Z,80.34
2017-10-25T19:56:21.426Z,80.54
2017-10-25T19:58:48.802Z,80.90
2017-10-25T20:01:16.219Z,80.96
2017-10-25T20:03:43.603Z,80.82
2017-10-25T20:06:10.991Z,80.73
2017-10-25T20:08:38.424Z,80.55
2017-10-25T20:11:05.878Z,80.93
2017-10-25T20:13:33.285Z,80.22
2017-10-25T20:16:00.690Z,80.60
2017-10-25T20:18:28.143Z,80.39
2017-10-25T20:20:55.616Z,80.25
2017-10-25T20:23:23.002Z,81.48
2017-10-25T20:25:50.415Z,81.76
2017-10-25T20:28:17.816Z,81.72
2017-10-25T20:30:45.206Z,81.41
2017-10-25T20:33:12.686Z,81.22
2017-10-25T20:35:40.078Z,81.41
2017-10-25T20:38:07.495Z,81.17
2017-10-25T20:40:34.951Z,80.68
2017-10-25T20:43:02.354Z,80.50
2017-10-25T20:45:29.766Z,80.11
2017-10-25T20:47:57.174Z,80.44
2017-10-25T20:50:24.570Z,80.26
2017-10-25T20:52:51.962Z,80.56
2017-10-25T20:55:19.360Z,80.69
2017-10-25T20:57:46.856Z,80.43
2017-10-25T21:00:14.296Z,80.26
2017-10-25T21:02:41.742Z,80.18
2017-10-25T21:05:09.207Z,79.89
2017-10-25T21:07:36.600Z,80.06
2017-10-25T21:10:04.003Z,80.03
2017-10-25T21:12:31.392Z,80.65
2017-10-25T21:14:58.803Z,80.88
2017-10-25T21:17:26.297Z,81.05
2017-10-25T21:19:53.743Z,81.45
2017-10-25T21:22:21.143Z,82.09
2017-10-25T21:24:48.568Z,82.17
2017-10-25T21:27:15.946Z,81.67
2017-10-25T21:29:43.368Z,82.09
2017-10-25T21:32:10.773Z,82.81
2017-10-25T21:34:38.169Z,82.20
2017-10-25T21:37:05.638Z,82.05
2017-10-25T21:39:33.086Z,82.89
2017-10-25T21:42:00.483Z,83.08
2017-10-25T21:44:27.870Z,83.86
2017-10-25T21:46:55.268Z,84.00
2017-10-25T21:49:22.654Z,84.06
2017-10-25T21:51:50.048Z,83.82
2017-10-25T21:54:17.436Z,83.44
2017-10-25T21:56:44.886Z,83.13
2017-10-25T21:59:12.405Z,83.77
2017-10-25T22:01:39.903Z,83.91
2017-10-25T22:04:07.298Z,83.95
2017-10-25T22:06:34.718Z,84.08
2017-10-25T22:09:02.131Z,84.67
2017-10-25T22:11:29.586Z,84.61
2017-10-25T22:13:56.983Z,84.19
2017-10-25T22:16:24.406Z,83.72
2017-10-25T22:18:51.787Z,83.83
2017-10-25T22:21:19.203Z,84.00
2017-10-25T22:23:46.703Z,83.04
2017-10-25T22:26:14.093Z,82.56
2017-10-25T22:28:41.490Z,82.20
2017-10-25T22:31:08.885Z,82.03
2017-10-25T22:33:36.276Z,81.67
2017-10-25T22:36:03.667Z,81.69
2017-10-25T22:38:31.066Z,82.12
2017-10-25T22:40:58.491Z,83.15
2017-10-25T22:43:25.918Z,83.11
2017-10-25T22:45:53.334Z,83.84
2017-10-25T22:48:20.815Z,83.78
2017-10-25T22:50:48.204Z,83.55
2017-10-25T22:53:15.621Z,82.98
2017-10-25T22:55:43.006Z,82.62
2017-10-25T22:58:10.406Z,82.33
2017-10-25T23:00:37.805Z,83.32
2017-10-25T23:03:05.202Z,83.48
2017-10-25T23:05:32.690Z,83.68
2017-10-25T23:08:00.087Z,83.33
2017-10-25T23:10:27.492Z,83.21
2017-10-25T23:12:54.960Z,83.23
2017-10-25T23:15:22.351Z,83.84
2017-10-25T23:17:49.742Z,83.56
2017-10-25T23:20:17.174Z,83.39
2017-10-25T23:22:44.570Z,84.10
2017-10-25T23:25:11.968Z,84.19
2017-10-25T23:27:39.396Z,84.55
2017-10-25T23:30:06.869Z,84.53
2017-10-25T23:32:34.270Z,84.07
2017-10-25T23:35:01.662Z,83.50
2017-10-25T23:37:29.058Z,83.52
2017-10-25T23:39:56.475Z,83.33
2017-10-25T23:42:23.931Z,83.44
2017-10-25T23:44:51.386Z,83.38
2017-10-25T23:47:18.769Z,83.92
2017-10-25T23:49:46.167Z,85.40
2017-10-25T23:52:13.654Z,85.70
2017-10-25T23:54:41.116Z,85.39
2017-10-25T23:57:08.513Z,84.68
2017-10-25T23:59:35.920Z,84.31
